createdAt,value
2023-02-01T05:40:12.093Z,1.52
2023-02-01T05:42:39.373Z,1.51
2023-02-01T05:45:07.968Z,1.50
2023-02-01T05:47:35.282Z,1.51
2023-02-01T05:50:02.966Z,1.50
2023-02-01T05:52:29.753Z,1.51
2023-02-01T05:54:56.861Z,1.46
2023-02-01T05:57:26.464Z,1.42
2023-02-01T05:59:53.801Z,1.39
2023-02-01T06:02:22.100Z,1.38
2023-02-01T06:04:49.157Z,1.37
2023-02-01T06:07:15.905Z,1.38
2023-02-01T06:09:42.818Z,1.38
2023-02-01T06:12:12.749Z,1.38
2023-02-01T06:14:39.795Z,1.39
2023-02-01T06:17:08.764Z,1.36
2023-02-01T06:19:35.536Z,1.30
2023-02-01T06:22:02.501Z,1.29
2023-02-01T06:24:29.314Z,1.32
2023-02-01T06:26:56.964Z,1.35
2023-02-01T06:29:24.301Z,1.38
2023-02-01T06:31:51.903Z,1.42
2023-02-01T06:34:22.096Z,1.46
2023-02-01T06:36:50.631Z,1.49
2023-02-01T06:39:17.325Z,1.53
2023-02-01T06:41:50.553Z,1.56
2023-02-01T06:44:18.901Z,1.58
2023-02-01T06:46:50.616Z,1.59
2023-02-01T06:49:18.714Z,1.61
2023-02-01T06:51:46.484Z,1.62
2023-02-01T06:54:14.610Z,1.65
2023-02-01T06:56:42.612Z,1.70
2023-02-01T06:59:10.654Z,1.73
2023-02-01T07:01:44.737Z,1.74
2023-02-01T07:04:14.651Z,1.77
2023-02-01T07:06:44.472Z,1.81
2023-02-01T07:09:15.541Z,1.87
2023-02-01T07:11:43.689Z,1.94
2023-02-01T07:14:13.207Z,2.00
2023-02-01T07:16:40.418Z,1.99
2023-02-01T07:19:08.035Z,2.02
2023-02-01T07:21:40.199Z,1.96
2023-02-01T07:24:07.786Z,1.96
2023-02-01T07:26:37.856Z,1.99
2023-02-01T07:29:06.186Z,1.99
2023-02-01T07:31:33.431Z,1.99
2023-02-01T07:34:01.301Z,1.97
2023-02-01T07:36:28.216Z,1.92
2023-02-01T07:38:56.884Z,1.90
2023-02-01T07:41:23.998Z,1.86
2023-02-01T07:43:53.343Z,1.82
2023-02-01T07:46:22.320Z,1.87
2023-02-01T07:52:36.845Z,2.26
2023-02-01T07:55:05.939Z,2.37
2023-02-01T07:57:33.695Z,2.38
2023-02-01T08:00:21.789Z,2.35
2023-02-01T08:02:49.486Z,2.23
2023-02-01T08:05:20.214Z,2.10
2023-02-01T08:07:53.170Z,2.05
2023-02-01T08:10:39.219Z,2.08
2023-02-01T08:13:10.494Z,2.15
2023-02-01T08:15:37.665Z,2.22
2023-02-01T08:18:34.818Z,2.33
2023-02-01T08:21:12.221Z,2.47
2023-02-01T08:26:56.051Z,2.79
2023-02-01T08:30:16.648Z,3.78
2023-02-01T08:33:15.400Z,4.90
2023-02-01T08:35:44.978Z,5.79
2023-02-01T08:38:17.320Z,6.72
2023-02-01T08:40:46.363Z,7.41
2023-02-01T08:43:16.615Z,7.74
2023-02-01T08:45:44.348Z,7.70
2023-02-01T08:48:12.796Z,7.26
2023-02-01T08:50:43.686Z,7.10
2023-02-01T08:53:14.488Z,7.42
2023-02-01T08:55:42.143Z,7.81
2023-02-01T08:58:08.959Z,8.06
2023-02-01T09:00:36.879Z,8.29
2023-02-01T09:03:09.133Z,8.06
2023-02-01T09:05:48.712Z,7.90
2023-02-01T09:08:20.522Z,7.98
2023-02-01T09:10:50.250Z,8.22
2023-02-01T09:13:48.239Z,8.50
2023-02-01T09:16:18.501Z,8.46
2023-02-01T09:18:56.589Z,8.60
2023-02-01T09:21:34.861Z,9.02
2023-02-01T09:24:11.678Z,9.28
2023-02-01T09:26:49.255Z,8.86
2023-02-01T09:29:16.388Z,8.42
2023-02-01T09:32:02.814Z,8.30
2023-02-01T09:34:34.397Z,8.16
2023-02-01T09:37:05.570Z,7.75
2023-02-01T09:39:33.121Z,7.17
2023-02-01T09:42:24.899Z,6.88
2023-02-01T09:45:07.536Z,6.63
2023-02-01T09:47:35.971Z,6.43
2023-02-01T09:50:19.938Z,5.96
2023-02-01T09:52:58.448Z,5.15
2023-02-01T09:55:46.759Z,4.68
2023-02-01T09:58:20.601Z,4.37
2023-02-01T10:01:02.633Z,4.11
2023-02-01T10:03:35.159Z,3.84
2023-02-01T10:06:58.524Z,3.64
2023-02-01T10:09:57.012Z,3.21
2023-02-01T10:12:33.891Z,3.01
2023-02-01T10:15:38.480Z,3.00
2023-02-01T10:18:33.511Z,2.96
2023-02-01T10:21:14.234Z,2.87
2023-02-01T10:27:01.817Z,2.59
2023-02-01T10:29:54.857Z,2.55
2023-02-01T10:32:42.189Z,2.44
2023-02-01T10:35:23.077Z,2.28
2023-02-01T10:37:59.858Z,2.18
2023-02-01T10:40:36.167Z,2.17
2023-02-01T10:47:30.264Z,2.21
2023-02-01T10:50:18.443Z,2.14
2023-02-01T10:52:54.542Z,2.02
2023-02-01T10:55:41.785Z,1.99
2023-02-01T10:58:27.354Z,1.97
2023-02-01T11:01:00.810Z,2.00
2023-02-01T11:03:38.941Z,2.05
2023-02-01T11:06:31.327Z,2.04
2023-02-01T11:09:06.097Z,2.08
2023-02-01T11:11:49.392Z,2.10
2023-02-01T11:14:19.833Z,2.09
2023-02-01T11:16:50.170Z,2.00
2023-02-01T11:19:20.871Z,1.91
2023-02-01T11:21:58.346Z,1.78
2023-02-01T11:24:30.551Z,1.66
2023-02-01T11:27:06.887Z,1.61
2023-02-01T11:29:40.282Z,1.53
2023-02-01T11:32:10.564Z,1.47
2023-02-01T11:34:40.130Z,1.51
2023-02-01T11:37:40.441Z,1.56
2023-02-01T11:40:23.989Z,1.62
2023-02-01T11:43:27.412Z,1.66
2023-02-01T11:45:59.882Z,1.73
2023-02-01T11:48:37.130Z,1.76
2023-02-01T11:51:29.438Z,1.77
2023-02-01T11:54:28.471Z,1.82
2023-02-01T11:57:13.369Z,1.83
2023-02-01T12:03:42.931Z,1.76
2023-02-01T12:07:06.077Z,1.74
2023-02-01T12:10:07.614Z,1.64
2023-02-01T12:13:33.716Z,1.56
